Skip Navigation

Christman Field Latest Observations

Switch to metric unitsOther observation timesWeekly graphs

Date Time
MST
Temp
°F
RH
%
DewPt
°F
Wind
mph
Dir
°
Gust
mph
Dir
°
Press
in Hg
Solar
W/m^2
Prec
in
2022-12-08 01:15 25.1 78.2 19.2 3.8 81 4.3 72 24.823 0.2 0.00
2022-12-08 01:10 25.3 76.2 18.8 2.5 58 3.1 56 24.822 0.2 0.00
2022-12-08 01:05 26.1 74.6 19.2 2.7 32 3.2 51 24.824 0.2 0.00
2022-12-08 01:00 27.3 71.6 19.4 2.5 42 3.7 329 24.820 0.2 0.00
2022-12-08 00:55 27.2 72.3 19.5 2.6 329 3.9 322 24.822 0.2 0.00
2022-12-08 00:50 27.2 72.2 19.4 3.5 301 5.0 307 24.821 0.2 0.00
2022-12-08 00:45 26.3 73.6 19.1 4.6 321 5.7 310 24.821 0.2 0.00
2022-12-08 00:40 25.3 75.4 18.6 5.4 312 6.4 319 24.821 0.1 0.00
2022-12-08 00:35 24.9 76.0 18.4 7.3 322 8.1 308 24.821 0.1 0.00
2022-12-08 00:30 25.9 73.9 18.7 6.2 310 7.5 323 24.821 0.1 0.00
2022-12-08 00:25 27.1 71.4 19.1 7.8 321 8.5 308 24.826 0.1 0.00
2022-12-08 00:20 27.6 70.6 19.3 8.3 304 8.8 305 24.832 0.1 0.00
2022-12-08 00:15 27.9 68.5 18.9 8.1 307 9.0 306 24.835 0.1 0.00
2022-12-08 00:10 27.1 69.2 18.3 7.6 305 8.9 311 24.835 0.2 0.00
2022-12-08 00:05 26.3 71.4 18.3 6.6 305 7.6 314 24.835 0.2 0.00
2022-12-08 00:00 26.6 71.2 18.5 4.7 316 5.3 317 24.836 0.2 0.00
2022-12-07 23:55 26.9 71.0 18.7 5.0 318 5.3 321 24.838 0.2 0.00
2022-12-07 23:50 26.9 70.2 18.5 5.7 323 6.1 332 24.838 0.2 0.00
2022-12-07 23:45 25.7 73.9 18.5 4.7 337 5.8 341 24.841 0.2 0.00
2022-12-07 23:40 26.0 72.0 18.2 4.0 358 4.4 351 24.848 0.1 0.00
2022-12-07 23:35 26.9 69.4 18.2 4.9 340 6.8 327 24.848 0.2 0.00
2022-12-07 23:30 26.3 71.3 18.3 5.8 325 7.4 329 24.847 0.2 0.00
2022-12-07 23:25 25.3 74.2 18.2 5.4 324 6.4 319 24.849 0.2 0.00
2022-12-07 23:20 26.2 70.7 18.0 5.6 282 7.0 275 24.855 0.2 0.00
2022-12-07 23:15 27.0 70.8 18.8 6.1 281 6.8 281 24.854 0.2 0.00
2022-12-07 23:10 27.5 67.3 18.1 6.1 296 7.1 302 24.853 0.2 0.00
2022-12-07 23:05 26.7 71.3 18.6 5.6 302 6.2 299 24.854 0.2 0.00
2022-12-07 23:00 27.4 69.5 18.8 5.5 295 6.1 298 24.856 0.2 0.00
2022-12-07 22:55 28.2 67.3 18.7 3.7 300 4.3 300 24.856 0.2 0.00
2022-12-07 22:50 29.7 62.6 18.5 4.5 341 5.5 340 24.856 0.2 0.00